createdAt,value
2018-08-13T00:00:10.468Z,64.83
2018-08-13T00:05:15.315Z,65.17
2018-08-13T00:10:20.050Z,65.37
2018-08-13T00:15:24.856Z,65.51
2018-08-13T00:20:29.643Z,64.09
2018-08-13T00:25:34.524Z,65.52
2018-08-13T00:30:39.704Z,65.76
2018-08-13T00:35:44.878Z,67.14
2018-08-13T00:40:49.770Z,66.31
2018-08-13T00:45:54.627Z,65.88
2018-08-13T00:50:59.445Z,67.01
2018-08-13T00:56:04.263Z,68.05
2018-08-13T01:01:09.077Z,67.12
2018-08-13T01:06:14.003Z,69.03
2018-08-13T01:11:19.120Z,68.55
2018-08-13T01:16:23.931Z,69.08
2018-08-13T01:21:28.725Z,68.98
2018-08-13T01:26:33.506Z,68.82
2018-08-13T01:31:38.339Z,68.86
2018-08-13T01:36:43.317Z,69.17
2018-08-13T01:41:48.113Z,69.53
2018-08-13T01:46:53.010Z,70.43
2018-08-13T01:51:57.889Z,70.62
2018-08-13T01:57:02.630Z,69.84
2018-08-13T02:02:07.455Z,70.49
2018-08-13T02:07:12.561Z,71.89
2018-08-13T02:12:17.422Z,71.42
2018-08-13T02:17:22.236Z,71.74
2018-08-13T02:22:27.053Z,70.47
2018-08-13T02:27:31.938Z,71.09
2018-08-13T02:32:36.826Z,71.14
2018-08-13T02:37:41.780Z,70.59
2018-08-13T02:42:46.828Z,70.85
2018-08-13T02:47:51.611Z,71.49
2018-08-13T02:52:56.336Z,71.95
2018-08-13T02:58:01.067Z,72.52
2018-08-13T03:03:07.081Z,71.89
2018-08-13T03:08:11.893Z,71.38
2018-08-13T03:13:16.731Z,71.57
2018-08-13T03:18:21.589Z,72.81
2018-08-13T03:23:26.583Z,73.30
2018-08-13T03:28:31.498Z,72.98
2018-08-13T03:33:36.337Z,74.10
2018-08-13T03:38:41.036Z,73.83
2018-08-13T03:43:46.138Z,73.33
2018-08-13T03:48:50.841Z,72.13
2018-08-13T03:53:55.865Z,73.52
2018-08-13T03:59:00.745Z,73.33
2018-08-13T04:04:05.643Z,72.46
2018-08-13T04:09:10.635Z,71.95
2018-08-13T04:14:15.354Z,71.44
2018-08-13T04:19:19.973Z,71.80
2018-08-13T04:24:24.853Z,72.35
2018-08-13T04:29:29.696Z,71.20
2018-08-13T04:34:35.446Z,71.16
2018-08-13T04:39:40.307Z,66.39
2018-08-13T04:44:45.092Z,63.86
2018-08-13T04:49:49.819Z,62.21
2018-08-13T04:54:54.548Z,60.73
2018-08-13T04:59:59.207Z,59.83
2018-08-13T05:05:04.209Z,61.36
2018-08-13T05:10:11.040Z,62.53
2018-08-13T05:15:15.868Z,59.06
2018-08-13T05:20:20.874Z,55.23
2018-08-13T05:25:25.690Z,54.96
2018-08-13T05:30:30.551Z,52.83
2018-08-13T05:35:35.549Z,51.41
2018-08-13T05:40:40.335Z,57.61
2018-08-13T05:45:45.133Z,56.66
2018-08-13T05:50:50.158Z,54.61
2018-08-13T05:55:54.934Z,53.13
2018-08-13T06:00:59.772Z,52.01
2018-08-13T06:06:04.502Z,51.96
2018-08-13T06:11:09.406Z,49.15
2018-08-13T06:16:14.164Z,50.46
2018-08-13T06:21:18.917Z,49.32
2018-08-13T06:26:23.824Z,51.83
2018-08-13T06:31:28.569Z,54.86
2018-08-13T06:36:33.323Z,55.21
2018-08-13T06:41:38.116Z,56.78
2018-08-13T06:46:42.870Z,54.76
2018-08-13T06:51:47.793Z,52.80
2018-08-13T06:56:52.498Z,53.29
2018-08-13T07:01:57.280Z,55.36
2018-08-13T07:07:02.315Z,53.94
2018-08-13T07:12:07.226Z,57.62
2018-08-13T07:17:12.037Z,60.72
2018-08-13T07:22:16.960Z,63.31
2018-08-13T07:27:21.885Z,62.65
2018-08-13T07:32:26.616Z,60.39
2018-08-13T07:37:31.402Z,60.55
2018-08-13T07:42:36.236Z,57.47
2018-08-13T07:47:41.205Z,56.96
2018-08-13T07:52:45.993Z,54.78
2018-08-13T07:57:51.068Z,55.75
2018-08-13T08:02:55.954Z,55.28
2018-08-13T08:08:00.794Z,53.99
2018-08-13T08:13:05.592Z,53.11
2018-08-13T08:18:10.435Z,53.04
2018-08-13T08:23:15.339Z,52.76
2018-08-13T08:28:20.304Z,54.54
2018-08-13T08:33:25.340Z,52.97
2018-08-13T08:38:30.157Z,53.87
2018-08-13T08:43:35.055Z,55.24
2018-08-13T08:48:39.805Z,57.08
2018-08-13T08:53:44.503Z,59.25
2018-08-13T08:58:49.261Z,61.05
2018-08-13T09:03:54.053Z,60.85
2018-08-13T09:08:58.866Z,61.90
2018-08-13T09:14:03.813Z,61.56
2018-08-13T09:19:25.219Z,59.38
2018-08-13T09:24:46.852Z,59.24
2018-08-13T09:30:08.282Z,61.37
2018-08-13T09:35:24.867Z,63.64
2018-08-13T09:40:31.066Z,66.03
2018-08-13T09:45:36.027Z,68.66
2018-08-13T09:50:40.853Z,69.73
2018-08-13T09:55:45.639Z,68.96
2018-08-13T10:00:55.447Z,71.06
2018-08-13T10:06:00.156Z,72.43
2018-08-13T10:11:05.010Z,71.92
2018-08-13T10:16:09.924Z,70.20
2018-08-13T10:21:14.676Z,71.37
2018-08-13T10:26:19.384Z,70.09
2018-08-13T10:31:24.140Z,72.41
2018-08-13T10:36:28.877Z,73.30
2018-08-13T10:41:33.577Z,71.12
2018-08-13T10:46:38.714Z,69.27
2018-08-13T10:51:43.477Z,69.90
2018-08-13T10:56:48.304Z,69.31
2018-08-13T11:01:53.180Z,69.16
2018-08-13T11:06:57.914Z,68.23
2018-08-13T11:12:02.836Z,69.59
2018-08-13T11:17:07.714Z,71.51
2018-08-13T11:22:12.592Z,73.70
2018-08-13T11:27:17.372Z,74.30
2018-08-13T11:32:22.184Z,74.83
2018-08-13T11:37:27.018Z,76.85
2018-08-13T11:42:31.806Z,73.93
2018-08-13T11:47:37.062Z,74.60
2018-08-13T11:52:43.153Z,72.30
2018-08-13T11:57:49.363Z,72.07
2018-08-13T12:02:54.227Z,76.49
2018-08-13T12:07:58.995Z,74.09
2018-08-13T12:13:03.772Z,66.79
2018-08-13T12:18:08.560Z,71.20
2018-08-13T12:23:13.234Z,70.02
2018-08-13T12:28:17.955Z,67.08
2018-08-13T12:33:22.839Z,67.74
2018-08-13T12:38:27.726Z,68.29
2018-08-13T12:43:32.559Z,68.01
2018-08-13T12:48:37.242Z,63.67
2018-08-13T12:53:42.143Z,63.17
2018-08-13T12:58:46.866Z,62.64
2018-08-13T13:03:51.721Z,61.98
2018-08-13T13:08:56.498Z,62.57
2018-08-13T13:14:01.242Z,64.08
2018-08-13T13:19:06.024Z,63.25
2018-08-13T13:24:10.832Z,66.33
2018-08-13T13:29:15.741Z,67.71
2018-08-13T13:34:20.511Z,67.30
2018-08-13T13:39:25.257Z,66.39
2018-08-13T13:44:30.053Z,67.91
2018-08-13T13:49:35.572Z,67.55
2018-08-13T13:54:40.364Z,68.68
2018-08-13T13:59:45.348Z,70.68
2018-08-13T14:04:50.308Z,71.72
2018-08-13T14:09:55.152Z,71.31
2018-08-13T14:15:00.092Z,71.91
2018-08-13T14:20:07.091Z,71.80
2018-08-13T14:25:13.581Z,70.58
2018-08-13T14:30:22.198Z,65.22
2018-08-13T14:35:26.967Z,61.94
2018-08-13T14:40:31.764Z,61.86
2018-08-13T14:45:36.817Z,62.05
2018-08-13T14:50:41.645Z,61.46
2018-08-13T14:55:46.689Z,59.82
2018-08-13T15:00:51.444Z,58.80
2018-08-13T15:05:56.276Z,58.69
2018-08-13T15:11:01.052Z,56.87
2018-08-13T15:16:05.846Z,59.02
2018-08-13T15:21:10.686Z,59.97
2018-08-13T15:26:15.626Z,60.32
2018-08-13T15:31:20.523Z,57.74
2018-08-13T15:36:25.392Z,56.59
2018-08-13T15:41:30.161Z,55.48
2018-08-13T15:46:34.967Z,55.52
2018-08-13T15:51:39.819Z,55.41
2018-08-13T15:56:44.967Z,55.54
2018-08-13T16:01:49.894Z,57.57
2018-08-13T16:06:54.627Z,60.29
2018-08-13T16:11:59.420Z,60.06
2018-08-13T16:17:04.327Z,61.33
2018-08-13T16:22:09.166Z,60.01
2018-08-13T16:27:14.117Z,59.68
2018-08-13T16:32:19.026Z,60.95
2018-08-13T16:37:23.917Z,61.82
2018-08-13T16:42:28.670Z,64.66
2018-08-13T16:47:34.477Z,65.97
2018-08-13T16:52:39.259Z,68.56
2018-08-13T16:57:44.017Z,70.25
2018-08-13T17:02:48.932Z,72.07
2018-08-13T17:07:54.121Z,70.69
2018-08-13T17:12:59.713Z,69.17
2018-08-13T17:18:04.820Z,68.89
2018-08-13T17:23:10.022Z,67.53
2018-08-13T17:28:14.909Z,69.50
2018-08-13T17:33:19.764Z,70.74
2018-08-13T17:38:24.569Z,70.54
2018-08-13T17:43:29.374Z,71.52
2018-08-13T17:48:34.257Z,69.69
2018-08-13T17:53:39.245Z,70.04
2018-08-13T17:58:44.216Z,70.83
2018-08-13T18:03:49.189Z,72.87
2018-08-13T18:08:54.290Z,74.17
2018-08-13T18:13:59.159Z,74.40
2018-08-13T18:19:04.065Z,77.45
2018-08-13T18:24:09.245Z,78.58
2018-08-13T18:29:14.165Z,79.45
2018-08-13T18:34:18.890Z,78.51
2018-08-13T18:39:23.621Z,80.46
2018-08-13T18:44:28.533Z,80.31
2018-08-13T18:49:33.445Z,82.51
2018-08-13T18:54:38.396Z,83.33
2018-08-13T18:59:43.267Z,82.63
2018-08-13T19:04:48.197Z,83.62
2018-08-13T19:09:53.055Z,84.31
2018-08-13T19:14:57.919Z,85.42
2018-08-13T19:20:02.690Z,86.12
2018-08-13T19:25:13.158Z,85.69
2018-08-13T19:30:19.304Z,86.00
2018-08-13T19:35:24.424Z,87.13
2018-08-13T19:40:29.359Z,87.07
2018-08-13T19:45:34.449Z,87.52
2018-08-13T19:50:39.546Z,87.30
2018-08-13T19:55:44.302Z,87.13
2018-08-13T20:00:49.152Z,88.24
2018-08-13T20:05:54.128Z,87.85
2018-08-13T20:10:59.401Z,88.17
2018-08-13T20:16:04.712Z,88.60
2018-08-13T20:21:09.571Z,86.42
2018-08-13T20:26:14.506Z,87.23
2018-08-13T20:31:19.459Z,86.71
2018-08-13T20:36:24.385Z,86.52
2018-08-13T20:41:29.330Z,86.27
2018-08-13T20:46:34.218Z,87.30
2018-08-13T20:51:39.368Z,86.88
2018-08-13T20:56:44.300Z,87.34
2018-08-13T21:01:49.151Z,88.43
2018-08-13T21:06:53.938Z,88.31
2018-08-13T21:11:58.849Z,88.83
2018-08-13T21:17:03.650Z,88.83
2018-08-13T21:22:08.754Z,89.53
2018-08-13T21:27:13.621Z,89.73
2018-08-13T21:32:18.581Z,89.24
2018-08-13T21:37:23.399Z,89.87
2018-08-13T21:42:28.126Z,89.94
2018-08-13T21:47:32.999Z,90.43
2018-08-13T21:52:37.871Z,90.94
2018-08-13T21:57:42.720Z,91.12
2018-08-13T22:02:47.793Z,90.73
2018-08-13T22:07:52.607Z,91.53
2018-08-13T22:12:57.579Z,91.76
2018-08-13T22:18:07.439Z,92.24
2018-08-13T22:23:12.150Z,92.27
2018-08-13T22:28:18.889Z,92.24
2018-08-13T22:33:23.845Z,92.68
2018-08-13T22:38:28.569Z,92.37
2018-08-13T22:43:33.325Z,93.06
2018-08-13T22:48:38.133Z,92.82
2018-08-13T22:53:42.992Z,92.77
2018-08-13T22:58:47.961Z,91.97
2018-08-13T23:03:52.796Z,91.62
2018-08-13T23:08:57.558Z,91.97
2018-08-13T23:14:02.399Z,91.50
2018-08-13T23:19:07.201Z,92.57
2018-08-13T23:24:11.873Z,92.13
2018-08-13T23:29:16.768Z,93.08
2018-08-13T23:34:21.546Z,93.30
2018-08-13T23:39:26.224Z,92.54
2018-08-13T23:44:31.015Z,92.67
2018-08-13T23:49:35.771Z,92.81
2018-08-13T23:54:40.704Z,92.33
2018-08-13T23:59:45.561Z,92.26
